sensor_id;sensor_type;location;lat;lon;timestamp;P1;durP1;ratioP1;P2;durP2;ratioP2
6531;SDS011;3299;42.004;24.868;2022-12-18T00:02:24;6.50;;;5.05;;
6531;SDS011;3299;42.004;24.868;2022-12-18T00:04:51;8.13;;;4.60;;
6531;SDS011;3299;42.004;24.868;2022-12-18T00:07:18;10.40;;;4.50;;
6531;SDS011;3299;42.004;24.868;2022-12-18T00:09:44;8.95;;;4.97;;
6531;SDS011;3299;42.004;24.868;2022-12-18T00:12:10;5.60;;;4.10;;
6531;SDS011;3299;42.004;24.868;2022-12-18T00:14:38;6.13;;;4.30;;
6531;SDS011;3299;42.004;24.868;2022-12-18T00:17:05;7.22;;;4.68;;
6531;SDS011;3299;42.004;24.868;2022-12-18T00:19:31;4.70;;;3.90;;
6531;SDS011;3299;42.004;24.868;2022-12-18T00:21:57;4.75;;;3.67;;
6531;SDS011;3299;42.004;24.868;2022-12-18T00:24:23;8.38;;;4.35;;
6531;SDS011;3299;42.004;24.868;2022-12-18T00:26:48;7.93;;;4.40;;
6531;SDS011;3299;42.004;24.868;2022-12-18T00:29:14;5.55;;;3.60;;
6531;SDS011;3299;42.004;24.868;2022-12-18T00:31:40;6.72;;;3.40;;
6531;SDS011;3299;42.004;24.868;2022-12-18T00:34:06;3.85;;;3.38;;
6531;SDS011;3299;42.004;24.868;2022-12-18T00:36:34;3.83;;;3.40;;
6531;SDS011;3299;42.004;24.868;2022-12-18T00:39:02;6.03;;;3.58;;
6531;SDS011;3299;42.004;24.868;2022-12-18T00:41:30;6.65;;;3.80;;
6531;SDS011;3299;42.004;24.868;2022-12-18T00:44:17;4.40;;;3.25;;
6531;SDS011;3299;42.004;24.868;2022-12-18T00:46:43;8.27;;;4.47;;
6531;SDS011;3299;42.004;24.868;2022-12-18T00:49:11;5.03;;;3.75;;
6531;SDS011;3299;42.004;24.868;2022-12-18T00:51:36;6.15;;;3.95;;
6531;SDS011;3299;42.004;24.868;2022-12-18T00:54:02;8.30;;;3.70;;
6531;SDS011;3299;42.004;24.868;2022-12-18T00:56:28;8.60;;;5.18;;
6531;SDS011;3299;42.004;24.868;2022-12-18T00:58:53;6.57;;;4.15;;
6531;SDS011;3299;42.004;24.868;2022-12-18T01:01:19;14.55;;;4.65;;
6531;SDS011;3299;42.004;24.868;2022-12-18T01:03:44;6.63;;;5.82;;
6531;SDS011;3299;42.004;24.868;2022-12-18T01:06:12;7.72;;;4.70;;
6531;SDS011;3299;42.004;24.868;2022-12-18T01:08:38;7.18;;;4.72;;
6531;SDS011;3299;42.004;24.868;2022-12-18T01:11:11;8.30;;;4.32;;
6531;SDS011;3299;42.004;24.868;2022-12-18T01:13:41;7.05;;;4.55;;
6531;SDS011;3299;42.004;24.868;2022-12-18T01:16:07;7.45;;;3.80;;
6531;SDS011;3299;42.004;24.868;2022-12-18T01:18:33;9.43;;;4.63;;
6531;SDS011;3299;42.004;24.868;2022-12-18T01:20:59;7.20;;;4.00;;
6531;SDS011;3299;42.004;24.868;2022-12-18T01:23:24;8.25;;;4.40;;
6531;SDS011;3299;42.004;24.868;2022-12-18T01:25:50;6.45;;;4.97;;
6531;SDS011;3299;42.004;24.868;2022-12-18T01:28:15;7.47;;;4.60;;
6531;SDS011;3299;42.004;24.868;2022-12-18T01:30:41;6.20;;;4.85;;
6531;SDS011;3299;42.004;24.868;2022-12-18T01:33:06;5.50;;;4.75;;
6531;SDS011;3299;42.004;24.868;2022-12-18T01:35:31;8.95;;;5.30;;
6531;SDS011;3299;42.004;24.868;2022-12-18T01:37:57;9.15;;;4.93;;
6531;SDS011;3299;42.004;24.868;2022-12-18T01:40:22;6.38;;;4.78;;
6531;SDS011;3299;42.004;24.868;2022-12-18T01:42:53;10.70;;;4.57;;
6531;SDS011;3299;42.004;24.868;2022-12-18T01:47:49;10.95;;;4.57;;
6531;SDS011;3299;42.004;24.868;2022-12-18T01:52:49;6.82;;;4.57;;
6531;SDS011;3299;42.004;24.868;2022-12-18T01:55:45;6.45;;;4.72;;
6531;SDS011;3299;42.004;24.868;2022-12-18T01:58:13;6.15;;;4.20;;
6531;SDS011;3299;42.004;24.868;2022-12-18T02:00:39;6.65;;;3.90;;
6531;SDS011;3299;42.004;24.868;2022-12-18T02:03:05;3.83;;;3.47;;
6531;SDS011;3299;42.004;24.868;2022-12-18T02:05:46;8.05;;;3.67;;
6531;SDS011;3299;42.004;24.868;2022-12-18T02:11:12;5.50;;;3.55;;
6531;SDS011;3299;42.004;24.868;2022-12-18T02:13:56;4.78;;;3.35;;
6531;SDS011;3299;42.004;24.868;2022-12-18T02:16:36;6.65;;;3.28;;
6531;SDS011;3299;42.004;24.868;2022-12-18T02:19:11;7.43;;;3.65;;
6531;SDS011;3299;42.004;24.868;2022-12-18T02:22:10;10.23;;;3.33;;
6531;SDS011;3299;42.004;24.868;2022-12-18T02:27:51;5.50;;;3.45;;
6531;SDS011;3299;42.004;24.868;2022-12-18T02:30:19;5.15;;;3.60;;
6531;SDS011;3299;42.004;24.868;2022-12-18T02:32:46;4.72;;;3.30;;
6531;SDS011;3299;42.004;24.868;2022-12-18T02:35:25;6.28;;;3.05;;
6531;SDS011;3299;42.004;24.868;2022-12-18T02:37:54;5.80;;;3.58;;
6531;SDS011;3299;42.004;24.868;2022-12-18T02:40:20;8.00;;;4.43;;
6531;SDS011;3299;42.004;24.868;2022-12-18T02:42:48;7.85;;;4.65;;
6531;SDS011;3299;42.004;24.868;2022-12-18T02:45:14;8.35;;;4.20;;
6531;SDS011;3299;42.004;24.868;2022-12-18T02:47:40;9.77;;;4.03;;
6531;SDS011;3299;42.004;24.868;2022-12-18T02:50:19;5.55;;;4.18;;
6531;SDS011;3299;42.004;24.868;2022-12-18T02:58:20;5.95;;;4.35;;
6531;SDS011;3299;42.004;24.868;2022-12-18T03:00:53;5.65;;;4.28;;
6531;SDS011;3299;42.004;24.868;2022-12-18T03:04:14;3.80;;;3.38;;
6531;SDS011;3299;42.004;24.868;2022-12-18T03:06:32;5.45;;;3.92;;
6531;SDS011;3299;42.004;24.868;2022-12-18T03:09:03;10.15;;;5.13;;
6531;SDS011;3299;42.004;24.868;2022-12-18T03:11:33;8.15;;;3.80;;
6531;SDS011;3299;42.004;24.868;2022-12-18T03:14:20;5.05;;;4.18;;
6531;SDS011;3299;42.004;24.868;2022-12-18T03:16:52;6.38;;;4.00;;
6531;SDS011;3299;42.004;24.868;2022-12-18T03:19:22;8.02;;;4.10;;
6531;SDS011;3299;42.004;24.868;2022-12-18T03:21:54;5.13;;;4.00;;
6531;SDS011;3299;42.004;24.868;2022-12-18T03:24:22;5.18;;;4.35;;
6531;SDS011;3299;42.004;24.868;2022-12-18T03:26:52;4.57;;;4.18;;
6531;SDS011;3299;42.004;24.868;2022-12-18T03:29:24;4.07;;;3.40;;
6531;SDS011;3299;42.004;24.868;2022-12-18T03:31:54;4.03;;;3.63;;
6531;SDS011;3299;42.004;24.868;2022-12-18T03:34:27;9.68;;;4.30;;
6531;SDS011;3299;42.004;24.868;2022-12-18T03:36:56;4.75;;;4.07;;
6531;SDS011;3299;42.004;24.868;2022-12-18T03:39:22;5.07;;;3.25;;
6531;SDS011;3299;42.004;24.868;2022-12-18T03:41:51;7.50;;;3.67;;
6531;SDS011;3299;42.004;24.868;2022-12-18T03:44:28;5.50;;;3.30;;
6531;SDS011;3299;42.004;24.868;2022-12-18T03:47:08;5.05;;;3.67;;
6531;SDS011;3299;42.004;24.868;2022-12-18T03:55:34;6.18;;;4.20;;
6531;SDS011;3299;42.004;24.868;2022-12-18T03:58:01;5.65;;;3.90;;
6531;SDS011;3299;42.004;24.868;2022-12-18T04:00:28;4.13;;;3.72;;
6531;SDS011;3299;42.004;24.868;2022-12-18T04:02:55;5.53;;;3.83;;
6531;SDS011;3299;42.004;24.868;2022-12-18T04:05:24;8.10;;;4.53;;
6531;SDS011;3299;42.004;24.868;2022-12-18T04:07:52;5.75;;;4.07;;
6531;SDS011;3299;42.004;24.868;2022-12-18T04:10:19;5.30;;;4.60;;
6531;SDS011;3299;42.004;24.868;2022-12-18T04:12:45;12.90;;;4.50;;
6531;SDS011;3299;42.004;24.868;2022-12-18T04:15:10;4.53;;;4.13;;
6531;SDS011;3299;42.004;24.868;2022-12-18T04:17:37;5.43;;;4.35;;
6531;SDS011;3299;42.004;24.868;2022-12-18T04:20:04;6.60;;;4.32;;
6531;SDS011;3299;42.004;24.868;2022-12-18T04:22:29;9.13;;;4.25;;
6531;SDS011;3299;42.004;24.868;2022-12-18T04:24:55;8.43;;;4.60;;
6531;SDS011;3299;42.004;24.868;2022-12-18T04:27:20;6.22;;;3.90;;
6531;SDS011;3299;42.004;24.868;2022-12-18T04:29:46;5.57;;;4.43;;
6531;SDS011;3299;42.004;24.868;2022-12-18T04:32:11;4.13;;;3.70;;
6531;SDS011;3299;42.004;24.868;2022-12-18T04:34:37;6.85;;;4.90;;
6531;SDS011;3299;42.004;24.868;2022-12-18T04:37:02;7.10;;;4.50;;
6531;SDS011;3299;42.004;24.868;2022-12-18T04:39:28;7.25;;;4.13;;
6531;SDS011;3299;42.004;24.868;2022-12-18T04:41:53;4.75;;;4.05;;
6531;SDS011;3299;42.004;24.868;2022-12-18T04:44:18;9.80;;;5.38;;
6531;SDS011;3299;42.004;24.868;2022-12-18T04:46:44;5.68;;;4.93;;
6531;SDS011;3299;42.004;24.868;2022-12-18T04:49:09;11.32;;;6.97;;
6531;SDS011;3299;42.004;24.868;2022-12-18T04:51:35;12.45;;;7.50;;
6531;SDS011;3299;42.004;24.868;2022-12-18T04:54:02;14.30;;;5.80;;
6531;SDS011;3299;42.004;24.868;2022-12-18T04:56:27;6.97;;;5.60;;
6531;SDS011;3299;42.004;24.868;2022-12-18T04:58:53;8.82;;;6.45;;
6531;SDS011;3299;42.004;24.868;2022-12-18T05:01:18;6.38;;;4.80;;
6531;SDS011;3299;42.004;24.868;2022-12-18T05:03:44;10.85;;;5.97;;
6531;SDS011;3299;42.004;24.868;2022-12-18T05:06:09;10.45;;;6.35;;
6531;SDS011;3299;42.004;24.868;2022-12-18T05:08:35;9.70;;;6.82;;
6531;SDS011;3299;42.004;24.868;2022-12-18T05:11:04;9.68;;;6.35;;
6531;SDS011;3299;42.004;24.868;2022-12-18T05:13:32;10.70;;;6.53;;
6531;SDS011;3299;42.004;24.868;2022-12-18T05:15:58;10.98;;;5.65;;
6531;SDS011;3299;42.004;24.868;2022-12-18T05:18:25;9.88;;;5.35;;
6531;SDS011;3299;42.004;24.868;2022-12-18T05:20:51;11.68;;;7.10;;
6531;SDS011;3299;42.004;24.868;2022-12-18T05:23:17;9.05;;;5.93;;
6531;SDS011;3299;42.004;24.868;2022-12-18T05:25:47;9.48;;;6.88;;
6531;SDS011;3299;42.004;24.868;2022-12-18T05:28:21;9.50;;;6.65;;
6531;SDS011;3299;42.004;24.868;2022-12-18T05:30:48;8.60;;;5.95;;
6531;SDS011;3299;42.004;24.868;2022-12-18T05:33:15;12.32;;;6.45;;
6531;SDS011;3299;42.004;24.868;2022-12-18T05:35:41;9.30;;;6.72;;
6531;SDS011;3299;42.004;24.868;2022-12-18T05:38:06;8.00;;;6.45;;
6531;SDS011;3299;42.004;24.868;2022-12-18T05:40:32;10.65;;;7.13;;
6531;SDS011;3299;42.004;24.868;2022-12-18T05:42:57;10.48;;;7.40;;
6531;SDS011;3299;42.004;24.868;2022-12-18T05:45:22;11.88;;;8.50;;
6531;SDS011;3299;42.004;24.868;2022-12-18T05:47:48;12.38;;;7.40;;
6531;SDS011;3299;42.004;24.868;2022-12-18T05:50:13;10.80;;;7.45;;
6531;SDS011;3299;42.004;24.868;2022-12-18T05:52:39;9.07;;;7.55;;
6531;SDS011;3299;42.004;24.868;2022-12-18T05:55:04;12.80;;;8.07;;
6531;SDS011;3299;42.004;24.868;2022-12-18T05:57:30;10.80;;;7.68;;
6531;SDS011;3299;42.004;24.868;2022-12-18T05:59:55;12.75;;;7.40;;
6531;SDS011;3299;42.004;24.868;2022-12-18T06:02:20;16.55;;;7.45;;
6531;SDS011;3299;42.004;24.868;2022-12-18T06:04:46;15.32;;;8.18;;
6531;SDS011;3299;42.004;24.868;2022-12-18T06:07:12;15.35;;;7.72;;
6531;SDS011;3299;42.004;24.868;2022-12-18T06:09:40;10.77;;;7.50;;
6531;SDS011;3299;42.004;24.868;2022-12-18T06:12:05;15.38;;;9.00;;
6531;SDS011;3299;42.004;24.868;2022-12-18T06:14:31;15.50;;;8.63;;
6531;SDS011;3299;42.004;24.868;2022-12-18T06:16:56;12.48;;;10.50;;
6531;SDS011;3299;42.004;24.868;2022-12-18T06:19:21;12.50;;;9.63;;
6531;SDS011;3299;42.004;24.868;2022-12-18T06:21:47;16.67;;;10.55;;
6531;SDS011;3299;42.004;24.868;2022-12-18T06:24:14;14.10;;;10.05;;
6531;SDS011;3299;42.004;24.868;2022-12-18T06:26:39;17.25;;;10.20;;
6531;SDS011;3299;42.004;24.868;2022-12-18T06:29:05;11.90;;;9.48;;
6531;SDS011;3299;42.004;24.868;2022-12-18T06:31:31;14.95;;;8.98;;
6531;SDS011;3299;42.004;24.868;2022-12-18T06:33:56;14.13;;;10.40;;
6531;SDS011;3299;42.004;24.868;2022-12-18T06:36:22;16.70;;;12.77;;
6531;SDS011;3299;42.004;24.868;2022-12-18T06:38:47;16.42;;;10.52;;
6531;SDS011;3299;42.004;24.868;2022-12-18T06:41:14;15.15;;;10.63;;
6531;SDS011;3299;42.004;24.868;2022-12-18T06:43:44;19.25;;;12.20;;
6531;SDS011;3299;42.004;24.868;2022-12-18T06:46:10;13.70;;;10.85;;
6531;SDS011;3299;42.004;24.868;2022-12-18T06:48:36;16.67;;;11.20;;
6531;SDS011;3299;42.004;24.868;2022-12-18T06:51:02;16.67;;;10.68;;
6531;SDS011;3299;42.004;24.868;2022-12-18T06:53:28;12.32;;;10.10;;
6531;SDS011;3299;42.004;24.868;2022-12-18T06:55:59;13.95;;;9.90;;
6531;SDS011;3299;42.004;24.868;2022-12-18T06:58:25;19.20;;;10.27;;
6531;SDS011;3299;42.004;24.868;2022-12-18T07:00:52;17.02;;;10.13;;
6531;SDS011;3299;42.004;24.868;2022-12-18T07:03:17;15.68;;;10.68;;
6531;SDS011;3299;42.004;24.868;2022-12-18T07:05:43;16.20;;;9.95;;
6531;SDS011;3299;42.004;24.868;2022-12-18T07:08:08;18.13;;;11.23;;
6531;SDS011;3299;42.004;24.868;2022-12-18T07:10:33;23.35;;;14.00;;
6531;SDS011;3299;42.004;24.868;2022-12-18T07:13:05;20.58;;;14.25;;
6531;SDS011;3299;42.004;24.868;2022-12-18T07:15:30;22.95;;;17.20;;
6531;SDS011;3299;42.004;24.868;2022-12-18T07:17:56;23.63;;;16.90;;
6531;SDS011;3299;42.004;24.868;2022-12-18T07:20:21;30.33;;;18.65;;
6531;SDS011;3299;42.004;24.868;2022-12-18T07:22:46;22.08;;;16.77;;
6531;SDS011;3299;42.004;24.868;2022-12-18T07:25:12;19.63;;;15.98;;
6531;SDS011;3299;42.004;24.868;2022-12-18T07:27:37;17.02;;;11.80;;
6531;SDS011;3299;42.004;24.868;2022-12-18T07:30:03;22.05;;;16.58;;
6531;SDS011;3299;42.004;24.868;2022-12-18T07:32:29;17.38;;;14.20;;
6531;SDS011;3299;42.004;24.868;2022-12-18T07:34:55;19.95;;;12.85;;
6531;SDS011;3299;42.004;24.868;2022-12-18T07:37:22;17.27;;;9.75;;
6531;SDS011;3299;42.004;24.868;2022-12-18T07:39:47;16.95;;;10.55;;
6531;SDS011;3299;42.004;24.868;2022-12-18T07:42:13;18.45;;;10.75;;
6531;SDS011;3299;42.004;24.868;2022-12-18T07:44:56;15.90;;;10.60;;
6531;SDS011;3299;42.004;24.868;2022-12-18T07:47:22;13.68;;;10.25;;
6531;SDS011;3299;42.004;24.868;2022-12-18T07:49:48;12.68;;;8.38;;
6531;SDS011;3299;42.004;24.868;2022-12-18T07:52:13;15.32;;;8.55;;
6531;SDS011;3299;42.004;24.868;2022-12-18T07:54:39;8.52;;;7.30;;
6531;SDS011;3299;42.004;24.868;2022-12-18T07:57:05;9.50;;;7.30;;
6531;SDS011;3299;42.004;24.868;2022-12-18T07:59:31;12.75;;;6.93;;
6531;SDS011;3299;42.004;24.868;2022-12-18T08:01:56;8.80;;;6.82;;
6531;SDS011;3299;42.004;24.868;2022-12-18T08:04:22;13.60;;;7.25;;
6531;SDS011;3299;42.004;24.868;2022-12-18T08:06:47;9.80;;;7.45;;
6531;SDS011;3299;42.004;24.868;2022-12-18T08:09:12;8.88;;;7.05;;
6531;SDS011;3299;42.004;24.868;2022-12-18T08:11:38;8.50;;;6.50;;
6531;SDS011;3299;42.004;24.868;2022-12-18T08:14:03;10.15;;;8.00;;
6531;SDS011;3299;42.004;24.868;2022-12-18T08:16:29;15.38;;;10.55;;
6531;SDS011;3299;42.004;24.868;2022-12-18T08:18:55;15.95;;;12.00;;
6531;SDS011;3299;42.004;24.868;2022-12-18T08:21:22;15.65;;;11.35;;
6531;SDS011;3299;42.004;24.868;2022-12-18T08:23:50;15.43;;;10.85;;
6531;SDS011;3299;42.004;24.868;2022-12-18T08:26:16;17.77;;;11.70;;
6531;SDS011;3299;42.004;24.868;2022-12-18T08:28:43;18.90;;;13.45;;
6531;SDS011;3299;42.004;24.868;2022-12-18T08:31:09;24.00;;;16.80;;
6531;SDS011;3299;42.004;24.868;2022-12-18T08:33:35;25.30;;;17.02;;
6531;SDS011;3299;42.004;24.868;2022-12-18T08:36:03;22.77;;;17.40;;
6531;SDS011;3299;42.004;24.868;2022-12-18T08:38:31;29.88;;;19.17;;
6531;SDS011;3299;42.004;24.868;2022-12-18T08:40:58;28.35;;;19.27;;
6531;SDS011;3299;42.004;24.868;2022-12-18T08:43:31;27.15;;;19.05;;
6531;SDS011;3299;42.004;24.868;2022-12-18T08:46:14;32.33;;;19.13;;
6531;SDS011;3299;42.004;24.868;2022-12-18T08:48:40;23.38;;;15.50;;
6531;SDS011;3299;42.004;24.868;2022-12-18T08:51:06;25.88;;;16.25;;
6531;SDS011;3299;42.004;24.868;2022-12-18T08:53:31;16.52;;;12.98;;
6531;SDS011;3299;42.004;24.868;2022-12-18T08:55:57;19.02;;;13.63;;
6531;SDS011;3299;42.004;24.868;2022-12-18T08:58:22;22.45;;;15.13;;
6531;SDS011;3299;42.004;24.868;2022-12-18T09:00:48;27.35;;;17.70;;
6531;SDS011;3299;42.004;24.868;2022-12-18T09:03:14;33.13;;;21.60;;
6531;SDS011;3299;42.004;24.868;2022-12-18T09:05:41;38.75;;;25.13;;
6531;SDS011;3299;42.004;24.868;2022-12-18T09:08:07;40.50;;;25.75;;
6531;SDS011;3299;42.004;24.868;2022-12-18T09:10:32;44.28;;;28.55;;
6531;SDS011;3299;42.004;24.868;2022-12-18T09:12:58;40.75;;;26.42;;
6531;SDS011;3299;42.004;24.868;2022-12-18T09:15:23;38.72;;;23.75;;
6531;SDS011;3299;42.004;24.868;2022-12-18T09:17:48;36.55;;;22.83;;
6531;SDS011;3299;42.004;24.868;2022-12-18T09:20:15;30.75;;;19.83;;
6531;SDS011;3299;42.004;24.868;2022-12-18T09:22:41;29.80;;;20.30;;
6531;SDS011;3299;42.004;24.868;2022-12-18T09:25:06;35.03;;;23.45;;
6531;SDS011;3299;42.004;24.868;2022-12-18T09:27:34;36.20;;;21.65;;
6531;SDS011;3299;42.004;24.868;2022-12-18T09:30:00;23.33;;;16.38;;
6531;SDS011;3299;42.004;24.868;2022-12-18T09:32:26;25.42;;;16.63;;
6531;SDS011;3299;42.004;24.868;2022-12-18T09:34:51;20.08;;;13.10;;
6531;SDS011;3299;42.004;24.868;2022-12-18T09:37:16;18.02;;;12.75;;
6531;SDS011;3299;42.004;24.868;2022-12-18T09:39:42;17.35;;;12.43;;
6531;SDS011;3299;42.004;24.868;2022-12-18T09:42:13;15.93;;;10.73;;
6531;SDS011;3299;42.004;24.868;2022-12-18T09:44:51;19.85;;;11.77;;
6531;SDS011;3299;42.004;24.868;2022-12-18T09:47:25;19.08;;;12.95;;
6531;SDS011;3299;42.004;24.868;2022-12-18T09:49:56;20.40;;;12.70;;
6531;SDS011;3299;42.004;24.868;2022-12-18T09:52:30;19.63;;;14.32;;
6531;SDS011;3299;42.004;24.868;2022-12-18T09:55:00;20.55;;;11.52;;
6531;SDS011;3299;42.004;24.868;2022-12-18T09:57:26;20.50;;;13.32;;
6531;SDS011;3299;42.004;24.868;2022-12-18T09:59:57;23.33;;;14.30;;
6531;SDS011;3299;42.004;24.868;2022-12-18T10:02:26;17.88;;;12.52;;
6531;SDS011;3299;42.004;24.868;2022-12-18T10:10:43;23.02;;;16.17;;
6531;SDS011;3299;42.004;24.868;2022-12-18T10:18:29;18.55;;;13.82;;
6531;SDS011;3299;42.004;24.868;2022-12-18T10:21:11;18.48;;;14.32;;
6531;SDS011;3299;42.004;24.868;2022-12-18T10:23:49;19.60;;;13.43;;
6531;SDS011;3299;42.004;24.868;2022-12-18T10:26:27;23.08;;;14.10;;
6531;SDS011;3299;42.004;24.868;2022-12-18T10:28:53;19.05;;;13.50;;
6531;SDS011;3299;42.004;24.868;2022-12-18T10:31:22;21.05;;;15.20;;
6531;SDS011;3299;42.004;24.868;2022-12-18T10:33:49;26.73;;;16.38;;
6531;SDS011;3299;42.004;24.868;2022-12-18T10:36:14;36.72;;;21.75;;
6531;SDS011;3299;42.004;24.868;2022-12-18T10:38:40;34.83;;;21.17;;
6531;SDS011;3299;42.004;24.868;2022-12-18T10:41:08;31.52;;;19.75;;
6531;SDS011;3299;42.004;24.868;2022-12-18T10:44:10;40.08;;;22.48;;
6531;SDS011;3299;42.004;24.868;2022-12-18T10:46:41;39.03;;;22.67;;
6531;SDS011;3299;42.004;24.868;2022-12-18T10:49:07;39.80;;;22.13;;
6531;SDS011;3299;42.004;24.868;2022-12-18T10:52:07;28.55;;;18.75;;
6531;SDS011;3299;42.004;24.868;2022-12-18T10:54:45;30.63;;;19.77;;
6531;SDS011;3299;42.004;24.868;2022-12-18T10:57:32;28.73;;;19.55;;
6531;SDS011;3299;42.004;24.868;2022-12-18T11:00:20;33.65;;;23.40;;
6531;SDS011;3299;42.004;24.868;2022-12-18T11:02:53;34.33;;;22.30;;
6531;SDS011;3299;42.004;24.868;2022-12-18T11:07:51;25.60;;;17.88;;
6531;SDS011;3299;42.004;24.868;2022-12-18T11:10:19;24.35;;;15.65;;
6531;SDS011;3299;42.004;24.868;2022-12-18T11:12:46;18.73;;;12.88;;
6531;SDS011;3299;42.004;24.868;2022-12-18T11:15:16;16.67;;;12.05;;
6531;SDS011;3299;42.004;24.868;2022-12-18T11:17:50;21.17;;;14.85;;
6531;SDS011;3299;42.004;24.868;2022-12-18T11:23:00;21.20;;;14.98;;
6531;SDS011;3299;42.004;24.868;2022-12-18T11:25:27;25.20;;;18.05;;
6531;SDS011;3299;42.004;24.868;2022-12-18T11:27:58;22.13;;;14.32;;
6531;SDS011;3299;42.004;24.868;2022-12-18T11:30:26;12.70;;;8.93;;
6531;SDS011;3299;42.004;24.868;2022-12-18T11:33:06;17.90;;;12.88;;
6531;SDS011;3299;42.004;24.868;2022-12-18T11:35:50;19.63;;;14.73;;
6531;SDS011;3299;42.004;24.868;2022-12-18T11:38:26;18.38;;;12.73;;
6531;SDS011;3299;42.004;24.868;2022-12-18T11:41:01;19.63;;;12.13;;
6531;SDS011;3299;42.004;24.868;2022-12-18T11:43:38;16.30;;;11.05;;
6531;SDS011;3299;42.004;24.868;2022-12-18T11:46:17;17.98;;;13.05;;
6531;SDS011;3299;42.004;24.868;2022-12-18T11:49:06;16.73;;;11.88;;
6531;SDS011;3299;42.004;24.868;2022-12-18T11:51:44;19.23;;;13.38;;
6531;SDS011;3299;42.004;24.868;2022-12-18T11:54:18;23.85;;;18.83;;
6531;SDS011;3299;42.004;24.868;2022-12-18T11:56:51;22.13;;;16.65;;
6531;SDS011;3299;42.004;24.868;2022-12-18T12:02:11;28.30;;;21.77;;
6531;SDS011;3299;42.004;24.868;2022-12-18T12:08:08;25.27;;;16.90;;
6531;SDS011;3299;42.004;24.868;2022-12-18T12:25:09;26.20;;;18.23;;
6531;SDS011;3299;42.004;24.868;2022-12-18T12:27:59;24.13;;;15.18;;
6531;SDS011;3299;42.004;24.868;2022-12-18T12:41:12;187.63;;;80.68;;
6531;SDS011;3299;42.004;24.868;2022-12-18T12:44:20;65.43;;;30.30;;
6531;SDS011;3299;42.004;24.868;2022-12-18T12:46:50;33.70;;;18.40;;
6531;SDS011;3299;42.004;24.868;2022-12-18T12:49:20;31.20;;;16.65;;
6531;SDS011;3299;42.004;24.868;2022-12-18T12:51:53;58.40;;;28.17;;
6531;SDS011;3299;42.004;24.868;2022-12-18T12:54:25;61.95;;;32.70;;
6531;SDS011;3299;42.004;24.868;2022-12-18T12:59:47;31.65;;;21.58;;
6531;SDS011;3299;42.004;24.868;2022-12-18T13:04:47;47.33;;;26.73;;
6531;SDS011;3299;42.004;24.868;2022-12-18T13:07:29;37.25;;;18.92;;
6531;SDS011;3299;42.004;24.868;2022-12-18T13:10:30;192.07;;;75.07;;
6531;SDS011;3299;42.004;24.868;2022-12-18T13:13:02;55.22;;;28.23;;
6531;SDS011;3299;42.004;24.868;2022-12-18T13:18:05;29.02;;;17.17;;
6531;SDS011;3299;42.004;24.868;2022-12-18T13:31:57;59.42;;;28.27;;
6531;SDS011;3299;42.004;24.868;2022-12-18T13:34:17;93.53;;;36.92;;
6531;SDS011;3299;42.004;24.868;2022-12-18T13:36:45;117.40;;;44.80;;
6531;SDS011;3299;42.004;24.868;2022-12-18T13:41:41;36.00;;;21.05;;
6531;SDS011;3299;42.004;24.868;2022-12-18T13:44:41;21.05;;;14.15;;
6531;SDS011;3299;42.004;24.868;2022-12-18T13:47:05;210.90;;;68.30;;
6531;SDS011;3299;42.004;24.868;2022-12-18T13:49:53;59.83;;;26.33;;
6531;SDS011;3299;42.004;24.868;2022-12-18T13:52:26;47.50;;;21.52;;
6531;SDS011;3299;42.004;24.868;2022-12-18T13:54:55;163.63;;;61.35;;
6531;SDS011;3299;42.004;24.868;2022-12-18T13:57:28;51.80;;;25.52;;
6531;SDS011;3299;42.004;24.868;2022-12-18T13:59:54;132.15;;;51.83;;
6531;SDS011;3299;42.004;24.868;2022-12-18T14:02:21;90.68;;;41.60;;
6531;SDS011;3299;42.004;24.868;2022-12-18T14:04:49;44.78;;;23.35;;
6531;SDS011;3299;42.004;24.868;2022-12-18T14:09:49;24.90;;;16.52;;
6531;SDS011;3299;42.004;24.868;2022-12-18T14:12:24;22.83;;;16.63;;
6531;SDS011;3299;42.004;24.868;2022-12-18T14:17:54;23.13;;;17.13;;
6531;SDS011;3299;42.004;24.868;2022-12-18T14:20:24;21.17;;;14.50;;
6531;SDS011;3299;42.004;24.868;2022-12-18T14:22:51;14.75;;;11.35;;
6531;SDS011;3299;42.004;24.868;2022-12-18T14:27:48;18.73;;;12.43;;
6531;SDS011;3299;42.004;24.868;2022-12-18T14:30:23;14.63;;;11.65;;
6531;SDS011;3299;42.004;24.868;2022-12-18T14:35:33;18.88;;;11.52;;
6531;SDS011;3299;42.004;24.868;2022-12-18T14:38:20;20.33;;;13.90;;
6531;SDS011;3299;42.004;24.868;2022-12-18T14:40:47;23.02;;;15.15;;
6531;SDS011;3299;42.004;24.868;2022-12-18T14:43:20;20.38;;;13.73;;
6531;SDS011;3299;42.004;24.868;2022-12-18T14:45:46;18.45;;;13.23;;
6531;SDS011;3299;42.004;24.868;2022-12-18T14:56:19;28.60;;;17.90;;
6531;SDS011;3299;42.004;24.868;2022-12-18T14:58:47;29.38;;;17.77;;
6531;SDS011;3299;42.004;24.868;2022-12-18T15:04:05;30.73;;;22.23;;
6531;SDS011;3299;42.004;24.868;2022-12-18T15:06:48;24.58;;;17.15;;
6531;SDS011;3299;42.004;24.868;2022-12-18T15:09:23;26.67;;;17.00;;
6531;SDS011;3299;42.004;24.868;2022-12-18T15:11:55;32.08;;;20.00;;
6531;SDS011;3299;42.004;24.868;2022-12-18T15:17:14;24.35;;;16.73;;
6531;SDS011;3299;42.004;24.868;2022-12-18T15:19:44;23.75;;;15.73;;
6531;SDS011;3299;42.004;24.868;2022-12-18T15:22:33;19.35;;;13.30;;
6531;SDS011;3299;42.004;24.868;2022-12-18T15:25:00;14.35;;;10.40;;
6531;SDS011;3299;42.004;24.868;2022-12-18T15:27:31;15.55;;;11.15;;
6531;SDS011;3299;42.004;24.868;2022-12-18T15:32:37;10.38;;;7.78;;
6531;SDS011;3299;42.004;24.868;2022-12-18T15:37:44;15.02;;;9.98;;
6531;SDS011;3299;42.004;24.868;2022-12-18T15:40:14;17.80;;;12.02;;
6531;SDS011;3299;42.004;24.868;2022-12-18T15:42:41;18.15;;;12.88;;
6531;SDS011;3299;42.004;24.868;2022-12-18T15:45:25;20.10;;;13.90;;
6531;SDS011;3299;42.004;24.868;2022-12-18T15:47:51;10.07;;;8.07;;
6531;SDS011;3299;42.004;24.868;2022-12-18T15:50:17;8.60;;;7.22;;
6531;SDS011;3299;42.004;24.868;2022-12-18T15:52:43;13.32;;;8.05;;
6531;SDS011;3299;42.004;24.868;2022-12-18T15:55:16;8.82;;;6.88;;
6531;SDS011;3299;42.004;24.868;2022-12-18T15:58:01;17.30;;;11.60;;
6531;SDS011;3299;42.004;24.868;2022-12-18T16:00:27;9.63;;;7.63;;
6531;SDS011;3299;42.004;24.868;2022-12-18T16:02:53;12.88;;;9.40;;
6531;SDS011;3299;42.004;24.868;2022-12-18T16:05:18;11.07;;;8.95;;
6531;SDS011;3299;42.004;24.868;2022-12-18T16:07:45;11.07;;;7.80;;
6531;SDS011;3299;42.004;24.868;2022-12-18T16:10:11;10.68;;;7.85;;
6531;SDS011;3299;42.004;24.868;2022-12-18T16:12:37;9.13;;;8.00;;
6531;SDS011;3299;42.004;24.868;2022-12-18T16:15:03;10.05;;;8.20;;
6531;SDS011;3299;42.004;24.868;2022-12-18T16:17:30;12.40;;;8.05;;
6531;SDS011;3299;42.004;24.868;2022-12-18T16:19:55;9.27;;;6.90;;
6531;SDS011;3299;42.004;24.868;2022-12-18T16:22:22;12.10;;;8.00;;
6531;SDS011;3299;42.004;24.868;2022-12-18T16:24:54;13.40;;;9.48;;
6531;SDS011;3299;42.004;24.868;2022-12-18T16:27:21;14.77;;;9.40;;
6531;SDS011;3299;42.004;24.868;2022-12-18T16:29:47;12.43;;;8.88;;
6531;SDS011;3299;42.004;24.868;2022-12-18T16:32:14;16.15;;;10.70;;
6531;SDS011;3299;42.004;24.868;2022-12-18T16:34:41;15.65;;;11.45;;
6531;SDS011;3299;42.004;24.868;2022-12-18T16:37:07;13.52;;;10.55;;
6531;SDS011;3299;42.004;24.868;2022-12-18T16:39:34;14.02;;;10.50;;
6531;SDS011;3299;42.004;24.868;2022-12-18T16:42:04;12.50;;;9.27;;
6531;SDS011;3299;42.004;24.868;2022-12-18T16:44:35;13.85;;;10.38;;
6531;SDS011;3299;42.004;24.868;2022-12-18T16:47:00;15.05;;;11.73;;
6531;SDS011;3299;42.004;24.868;2022-12-18T16:49:27;23.65;;;20.35;;
6531;SDS011;3299;42.004;24.868;2022-12-18T16:51:52;19.95;;;16.23;;
6531;SDS011;3299;42.004;24.868;2022-12-18T16:54:18;22.23;;;16.55;;
6531;SDS011;3299;42.004;24.868;2022-12-18T16:56:44;27.75;;;20.60;;
6531;SDS011;3299;42.004;24.868;2022-12-18T16:59:11;27.13;;;19.20;;
6531;SDS011;3299;42.004;24.868;2022-12-18T17:01:37;28.98;;;21.13;;